createdAt,value
2023-02-11T00:02:22.305Z,62
2023-02-11T00:12:30.406Z,62
2023-02-11T00:22:38.426Z,62
2023-02-11T00:32:46.488Z,62
2023-02-11T00:42:54.508Z,62
2023-02-11T00:53:03.172Z,62
2023-02-11T01:03:11.711Z,61
2023-02-11T01:13:19.781Z,60
2023-02-11T01:23:27.878Z,62
2023-02-11T01:33:36.838Z,62
2023-02-11T01:43:44.906Z,60
2023-02-11T01:53:52.850Z,58
2023-02-11T02:04:01.196Z,58
2023-02-11T02:14:09.399Z,59
2023-02-11T02:24:19.934Z,60
2023-02-11T02:34:17.971Z,59
2023-02-11T02:44:26.216Z,59
2023-02-11T02:54:34.585Z,59
2023-02-11T03:04:42.780Z,59
2023-02-11T03:14:52.132Z,59
2023-02-11T03:25:00.253Z,60
2023-02-11T03:35:08.249Z,60
2023-02-11T03:45:16.419Z,61
2023-02-11T03:55:24.448Z,62
2023-02-11T04:05:32.483Z,63
2023-02-11T04:15:40.424Z,63
2023-02-11T04:25:48.089Z,64
2023-02-11T04:35:56.026Z,65
2023-02-11T04:46:04.095Z,65
2023-02-11T04:56:11.984Z,65
2023-02-11T05:06:19.890Z,64
2023-02-11T05:16:27.750Z,64
2023-02-11T05:26:37.801Z,64
2023-02-11T05:36:45.719Z,64
2023-02-11T05:46:53.729Z,63
2023-02-11T05:57:01.770Z,64
2023-02-11T06:07:10.204Z,63
2023-02-11T06:17:17.776Z,64
2023-02-11T06:27:25.923Z,64
2023-02-11T06:37:33.840Z,65
2023-02-11T06:47:43.747Z,65
2023-02-11T06:57:51.861Z,65
2023-02-11T07:08:01.088Z,67
2023-02-11T07:18:14.652Z,66
2023-02-11T07:28:12.061Z,64
2023-02-11T07:38:16.587Z,65
2023-02-11T07:48:27.953Z,66
2023-02-11T07:58:36.882Z,65
2023-02-11T08:08:26.462Z,63
2023-02-11T08:18:50.181Z,58
2023-02-11T08:28:41.707Z,56
2023-02-11T08:39:17.829Z,54
2023-02-11T08:48:52.057Z,54
2023-02-11T08:59:02.647Z,52
2023-02-11T09:09:12.616Z,51
2023-02-11T09:19:38.053Z,51
2023-02-11T09:29:16.386Z,50
2023-02-11T09:39:18.549Z,49
2023-02-11T09:49:17.836Z,50
2023-02-11T09:59:28.555Z,47
2023-02-11T10:09:39.127Z,46
2023-02-11T10:19:39.827Z,46
2023-02-11T10:29:47.912Z,46
2023-02-11T10:39:55.742Z,45
2023-02-11T10:50:03.824Z,44
2023-02-11T11:00:11.988Z,44
2023-02-11T11:10:20.350Z,41
2023-02-11T11:20:31.112Z,40
2023-02-11T11:30:38.404Z,36
2023-02-11T11:40:39.454Z,34
2023-02-11T11:50:45.315Z,33
2023-02-11T12:00:51.582Z,31
2023-02-11T12:10:56.554Z,31
2023-02-11T12:20:58.972Z,32
2023-02-11T12:31:01.906Z,33
2023-02-11T12:41:04.900Z,34
2023-02-11T12:51:14.162Z,38
2023-02-11T13:01:42.601Z,40
2023-02-11T13:11:27.086Z,40
2023-02-11T13:21:31.232Z,40
2023-02-11T13:31:36.451Z,43
2023-02-11T13:41:39.561Z,42
2023-02-11T14:01:42.033Z,40
2023-02-11T14:21:52.079Z,40
2023-02-11T14:31:52.628Z,40
2023-02-11T14:42:01.970Z,42
2023-02-11T15:02:04.281Z,42
2023-02-11T15:12:11.688Z,38
2023-02-11T15:22:19.653Z,39
2023-02-11T15:32:36.126Z,38
2023-02-11T15:42:52.367Z,38
2023-02-11T15:52:46.989Z,40
2023-02-11T16:13:01.063Z,38
2023-02-11T16:22:59.664Z,38
2023-02-11T16:33:09.240Z,39
2023-02-11T16:43:15.935Z,40
2023-02-11T17:03:18.843Z,41
2023-02-11T17:13:34.746Z,44
2023-02-11T17:23:44.121Z,45
2023-02-11T17:33:42.278Z,46
2023-02-11T17:43:49.899Z,46
2023-02-11T17:54:00.640Z,46
2023-02-11T18:03:58.061Z,46
2023-02-11T18:14:38.849Z,47
2023-02-11T18:34:10.806Z,48
2023-02-11T18:44:11.294Z,48
2023-02-11T18:54:28.268Z,49
2023-02-11T19:04:18.447Z,51
2023-02-11T19:14:34.170Z,52
2023-02-11T19:24:36.382Z,53
2023-02-11T19:34:30.464Z,52
2023-02-11T19:44:38.316Z,52
2023-02-11T19:54:39.744Z,52
2023-02-11T20:04:46.672Z,53
2023-02-11T20:14:51.293Z,53
2023-02-11T20:25:13.613Z,54
2023-02-11T20:35:26.051Z,54
2023-02-11T20:45:00.590Z,54
2023-02-11T20:55:42.886Z,54
2023-02-11T21:05:06.400Z,55
2023-02-11T21:15:15.866Z,55
2023-02-11T21:25:16.984Z,57
2023-02-11T21:35:16.710Z,57
2023-02-11T21:45:25.880Z,58
2023-02-11T21:55:34.053Z,59
2023-02-11T22:05:42.261Z,58
2023-02-11T22:15:50.507Z,58
2023-02-11T22:25:58.925Z,58
2023-02-11T22:36:08.312Z,58
2023-02-11T22:46:16.442Z,60
2023-02-11T22:56:24.394Z,62
2023-02-11T23:06:32.467Z,62
2023-02-11T23:16:40.601Z,63
2023-02-11T23:26:48.727Z,63
2023-02-11T23:36:56.861Z,63
2023-02-11T23:47:05.073Z,64
2023-02-11T23:57:12.983Z,64
